createdAt,value
2022-08-05T00:02:07.369Z,47.29
2022-08-05T00:04:34.406Z,47.23
2022-08-05T00:07:01.013Z,47.74
2022-08-05T00:09:47.365Z,47.30
2022-08-05T00:12:14.272Z,47.45
2022-08-05T00:14:40.644Z,47.18
2022-08-05T00:17:18.712Z,46.87
2022-08-05T00:20:02.504Z,47.01
2022-08-05T00:22:29.455Z,47.13
2022-08-05T00:24:57.300Z,47.19
2022-08-05T00:27:35.880Z,47.10
2022-08-05T00:30:03.253Z,46.78
2022-08-05T00:32:29.877Z,46.78
2022-08-05T00:35:07.098Z,46.94
2022-08-05T00:37:35.428Z,47.00
2022-08-05T00:40:17.781Z,47.08
2022-08-05T00:42:52.916Z,46.49
2022-08-05T00:45:38.675Z,46.63
2022-08-05T00:48:06.300Z,46.60
2022-08-05T00:50:33.375Z,46.82
2022-08-05T00:52:59.748Z,46.59
2022-08-05T00:55:34.238Z,46.51
2022-08-05T00:58:11.098Z,46.55
2022-08-05T01:00:37.881Z,46.76
2022-08-05T01:03:07.674Z,46.75
2022-08-05T01:05:34.468Z,46.81
2022-08-05T01:08:42.156Z,46.85
2022-08-05T01:10:51.432Z,47.05
2022-08-05T01:13:22.174Z,47.04
2022-08-05T01:15:53.465Z,46.99
2022-08-05T01:18:21.084Z,47.53
2022-08-05T01:20:47.452Z,47.30
2022-08-05T01:23:23.205Z,47.23
2022-08-05T01:25:53.435Z,47.08
2022-08-05T01:28:20.327Z,47.47
2022-08-05T01:30:50.693Z,47.65
2022-08-05T01:33:21.417Z,47.76
2022-08-05T01:35:53.181Z,48.01
2022-08-05T01:38:26.871Z,47.90
2022-08-05T01:40:55.389Z,48.13
2022-08-05T01:43:21.961Z,47.85
2022-08-05T01:45:56.220Z,48.10
2022-08-05T01:48:23.224Z,48.39
2022-08-05T01:50:51.055Z,48.48
2022-08-05T01:53:17.801Z,48.24
2022-08-05T01:56:04.472Z,48.49
2022-08-05T01:58:40.489Z,48.19
2022-08-05T02:01:11.251Z,48.08
2022-08-05T02:03:37.674Z,48.32
2022-08-05T02:06:33.240Z,48.26
2022-08-05T02:08:58.444Z,48.62
2022-08-05T02:11:33.178Z,48.16
2022-08-05T02:14:00.283Z,48.81
2022-08-05T02:16:28.004Z,48.55
2022-08-05T02:18:55.073Z,48.62
2022-08-05T02:21:21.809Z,48.55
2022-08-05T02:23:48.478Z,48.74
2022-08-05T02:26:14.960Z,48.72
2022-08-05T02:28:45.761Z,48.32
2022-08-05T02:31:14.607Z,48.94
2022-08-05T02:33:41.328Z,48.85
2022-08-05T02:36:09.478Z,48.78
2022-08-05T02:38:35.952Z,49.04
2022-08-05T02:41:06.481Z,49.24
2022-08-05T02:44:02.359Z,49.11
2022-08-05T02:46:27.758Z,49.44
2022-08-05T02:48:55.356Z,49.55
2022-08-05T02:51:28.477Z,49.66
2022-08-05T02:54:08.082Z,49.64
2022-08-05T02:56:34.689Z,49.67
2022-08-05T02:59:01.059Z,50.21
2022-08-05T03:01:27.577Z,49.93
2022-08-05T03:04:02.207Z,49.78
2022-08-05T03:06:55.097Z,51.13
2022-08-05T03:09:17.686Z,50.90
2022-08-05T03:11:57.896Z,51.13
2022-08-05T03:14:24.636Z,49.83
2022-08-05T03:16:53.372Z,50.42
2022-08-05T03:19:33.469Z,50.31
2022-08-05T03:22:01.055Z,50.55
2022-08-05T03:24:30.200Z,50.76
2022-08-05T03:26:57.093Z,51.13
2022-08-05T03:29:23.681Z,51.05
2022-08-05T03:31:56.665Z,51.05
2022-08-05T03:34:26.689Z,50.40
2022-08-05T03:36:53.405Z,50.88
2022-08-05T03:39:27.245Z,50.65
2022-08-05T03:41:56.319Z,50.96
2022-08-05T03:44:22.916Z,50.79
2022-08-05T03:46:49.285Z,50.71
2022-08-05T03:49:15.660Z,50.46
2022-08-05T03:52:38.841Z,50.81
2022-08-05T03:55:52.151Z,50.89
2022-08-05T03:57:16.567Z,50.81
2022-08-05T04:00:01.669Z,50.74
2022-08-05T04:02:37.498Z,50.64
2022-08-05T04:05:05.612Z,50.39
2022-08-05T04:07:36.128Z,49.98
2022-08-05T04:10:22.473Z,50.47
2022-08-05T04:12:48.834Z,50.79
2022-08-05T04:15:15.661Z,50.39
2022-08-05T04:17:57.351Z,50.77
2022-08-05T04:20:26.375Z,50.90
2022-08-05T04:22:52.758Z,51.62
2022-08-05T04:25:19.136Z,51.85
2022-08-05T04:28:11.355Z,52.16
2022-08-05T04:30:39.228Z,51.06
2022-08-05T04:33:06.092Z,53.41
2022-08-05T04:36:16.472Z,51.46
2022-08-05T04:38:20.332Z,51.88
2022-08-05T04:40:50.844Z,52.67
2022-08-05T04:43:17.368Z,52.12
2022-08-05T04:45:48.896Z,51.63
2022-08-05T04:48:27.428Z,51.58
2022-08-05T04:51:02.696Z,50.92
2022-08-05T04:53:36.349Z,51.15
2022-08-05T04:56:33.769Z,50.73
2022-08-05T04:58:51.421Z,50.70
2022-08-05T05:02:06.396Z,50.87
2022-08-05T05:04:05.205Z,51.13
2022-08-05T05:06:35.830Z,51.07
2022-08-05T05:09:06.110Z,50.99
2022-08-05T05:11:41.485Z,50.53
2022-08-05T05:14:16.253Z,50.78
2022-08-05T05:16:42.774Z,50.57
2022-08-05T05:19:19.258Z,51.09
2022-08-05T05:21:49.864Z,50.66
2022-08-05T05:24:21.973Z,50.85
2022-08-05T05:26:48.349Z,50.69
2022-08-05T05:29:18.357Z,50.63
2022-08-05T05:31:46.188Z,50.82
2022-08-05T05:34:12.937Z,50.67
2022-08-05T05:36:41.965Z,51.04
2022-08-05T05:39:10.920Z,50.71
2022-08-05T05:41:40.824Z,50.45
2022-08-05T05:44:36.984Z,50.57
2022-08-05T05:46:54.685Z,50.73
2022-08-05T05:49:24.196Z,50.81
2022-08-05T05:51:50.901Z,50.71
2022-08-05T05:54:19.888Z,50.84
2022-08-05T05:56:46.244Z,50.62
2022-08-05T05:59:13.775Z,50.65
2022-08-05T06:01:40.303Z,50.58
2022-08-05T06:04:06.921Z,50.67
2022-08-05T06:06:34.808Z,50.51
2022-08-05T06:09:01.440Z,50.44
2022-08-05T06:11:30.164Z,50.44
2022-08-05T06:13:56.690Z,50.25
2022-08-05T06:16:30.437Z,50.04
2022-08-05T06:19:00.941Z,50.44
2022-08-05T06:21:36.625Z,50.41
2022-08-05T06:24:03.682Z,50.43
2022-08-05T06:26:33.804Z,50.50
2022-08-05T06:29:03.692Z,50.57
2022-08-05T06:31:47.773Z,50.47
2022-08-05T06:34:17.030Z,50.22
2022-08-05T06:36:57.317Z,50.37
2022-08-05T06:39:27.225Z,50.22
2022-08-05T06:41:54.292Z,50.24
2022-08-05T06:44:21.970Z,50.33
2022-08-05T06:46:50.926Z,50.30
2022-08-05T06:49:17.605Z,50.24
2022-08-05T06:51:45.377Z,50.32
2022-08-05T06:54:12.042Z,50.32
2022-08-05T06:56:54.641Z,50.17
2022-08-05T06:59:38.501Z,50.17
2022-08-05T07:02:05.345Z,50.34
2022-08-05T07:04:31.724Z,50.17
2022-08-05T07:06:59.378Z,50.30
2022-08-05T07:09:25.742Z,49.98
2022-08-05T07:12:00.523Z,50.08
2022-08-05T07:14:29.809Z,50.30
2022-08-05T07:18:01.318Z,50.05
2022-08-05T07:22:30.453Z,50.44
2022-08-05T07:24:56.930Z,50.44
2022-08-05T07:27:27.226Z,49.99
2022-08-05T07:30:23.888Z,50.08
2022-08-05T07:32:53.532Z,50.53
2022-08-05T07:36:02.889Z,50.34
2022-08-05T07:38:06.310Z,50.28
2022-08-05T07:40:38.917Z,50.45
2022-08-05T07:43:14.510Z,50.71
2022-08-05T07:45:57.541Z,50.37
2022-08-05T07:49:01.586Z,50.34
2022-08-05T07:51:23.848Z,50.50
2022-08-05T07:53:57.375Z,50.38
2022-08-05T07:57:00.516Z,50.43
2022-08-05T07:59:10.715Z,50.46
2022-08-05T08:01:51.756Z,50.39
2022-08-05T08:04:34.368Z,50.39
2022-08-05T08:07:05.515Z,50.39
2022-08-05T08:09:33.612Z,50.51
2022-08-05T08:12:06.228Z,50.55
2022-08-05T08:14:37.767Z,50.63
2022-08-05T08:17:07.156Z,50.39
2022-08-05T08:20:22.989Z,50.37
2022-08-05T08:22:21.198Z,50.50
2022-08-05T08:24:53.346Z,50.32
2022-08-05T08:27:19.721Z,50.33
2022-08-05T08:30:05.361Z,50.12
2022-08-05T08:32:32.622Z,50.73
2022-08-05T08:34:59.068Z,50.27
2022-08-05T08:37:27.922Z,50.40
2022-08-05T08:39:54.667Z,50.22
2022-08-05T08:42:34.318Z,50.25
2022-08-05T08:45:18.772Z,50.70
2022-08-05T08:48:06.885Z,50.45
2022-08-05T08:51:04.034Z,50.37
2022-08-05T08:53:25.014Z,50.52
2022-08-05T08:56:04.574Z,50.66
2022-08-05T08:58:43.998Z,50.45
2022-08-05T09:01:16.206Z,49.97
2022-08-05T09:03:45.573Z,50.00
2022-08-05T09:06:16.995Z,50.05
2022-08-05T09:08:44.921Z,50.21
2022-08-05T09:11:12.246Z,50.30
2022-08-05T09:14:00.946Z,50.73
2022-08-05T09:16:26.907Z,50.55
2022-08-05T09:18:53.399Z,50.82
2022-08-05T09:22:22.396Z,50.42
2022-08-05T09:24:08.214Z,50.82
2022-08-05T09:26:36.722Z,50.77
2022-08-05T09:29:03.125Z,50.90
2022-08-05T09:32:40.246Z,50.80
2022-08-05T09:34:16.872Z,51.16
2022-08-05T09:36:54.084Z,51.03
2022-08-05T09:39:22.216Z,51.05
2022-08-05T09:41:53.916Z,50.84
2022-08-05T09:44:22.672Z,51.04
2022-08-05T09:46:53.683Z,51.17
2022-08-05T09:49:40.447Z,50.87
2022-08-05T09:52:10.889Z,50.97
2022-08-05T09:54:37.546Z,51.23
2022-08-05T09:57:06.570Z,50.84
2022-08-05T09:59:49.919Z,50.85
2022-08-05T10:02:16.395Z,51.06
2022-08-05T10:04:46.881Z,50.87
2022-08-05T10:07:20.247Z,50.64
2022-08-05T10:10:04.215Z,50.58
2022-08-05T10:12:49.317Z,50.54
2022-08-05T10:15:17.337Z,50.49
2022-08-05T10:17:56.708Z,50.43
2022-08-05T10:20:24.052Z,50.54
2022-08-05T10:22:51.546Z,50.42
2022-08-05T10:25:17.946Z,50.34
2022-08-05T10:28:13.661Z,50.29
2022-08-05T10:31:20.052Z,50.09
2022-08-05T10:33:18.557Z,49.92
2022-08-05T10:35:48.548Z,49.90
2022-08-05T10:38:25.669Z,50.37
2022-08-05T10:40:58.094Z,50.38
2022-08-05T10:43:30.850Z,50.40
2022-08-05T10:46:06.286Z,50.27
2022-08-05T10:48:38.400Z,50.49
2022-08-05T10:51:21.649Z,50.34
2022-08-05T10:53:49.198Z,50.46
2022-08-05T10:56:25.746Z,50.36
2022-08-05T10:58:52.602Z,50.59
2022-08-05T11:01:28.371Z,50.78
2022-08-05T11:04:05.297Z,50.63
2022-08-05T11:06:32.605Z,50.62
2022-08-05T11:08:58.961Z,50.86
2022-08-05T11:11:25.330Z,50.77
2022-08-05T11:14:08.376Z,50.33
2022-08-05T11:16:47.686Z,50.52
2022-08-05T11:20:16.641Z,50.50
2022-08-05T11:22:07.656Z,50.26
2022-08-05T11:24:35.910Z,50.15
2022-08-05T11:27:05.201Z,50.34
2022-08-05T11:29:31.572Z,50.26
2022-08-05T11:32:01.142Z,50.47
2022-08-05T11:34:27.634Z,50.35
2022-08-05T11:36:54.942Z,50.19
2022-08-05T11:39:23.211Z,50.52
2022-08-05T11:42:00.888Z,50.30
2022-08-05T11:44:53.093Z,50.31
2022-08-05T11:47:21.545Z,50.20
2022-08-05T11:49:49.536Z,50.20
2022-08-05T11:52:17.432Z,50.26
2022-08-05T11:54:55.002Z,50.46
2022-08-05T11:57:39.428Z,50.07
2022-08-05T12:00:08.505Z,50.22
2022-08-05T12:02:36.129Z,50.39
2022-08-05T12:05:07.027Z,50.24
2022-08-05T12:08:07.584Z,50.03
2022-08-05T12:10:21.102Z,50.19
2022-08-05T12:12:59.841Z,50.09
2022-08-05T12:15:35.843Z,50.44
2022-08-05T12:18:10.866Z,49.92
2022-08-05T12:20:38.665Z,50.10
2022-08-05T12:23:05.225Z,50.08
2022-08-05T12:25:31.587Z,49.82
2022-08-05T12:27:57.942Z,50.05
2022-08-05T12:30:32.075Z,49.51
2022-08-05T12:32:58.726Z,49.67
2022-08-05T12:35:37.230Z,49.62
2022-08-05T12:38:06.328Z,49.54
2022-08-05T12:40:32.693Z,49.23
2022-08-05T12:42:59.065Z,49.09
2022-08-05T12:45:42.644Z,49.17
2022-08-05T12:48:27.570Z,49.28
2022-08-05T12:50:58.096Z,49.07
2022-08-05T12:53:36.960Z,49.12
2022-08-05T12:56:05.020Z,48.57
2022-08-05T12:58:55.721Z,48.94
2022-08-05T13:02:03.964Z,49.18
2022-08-05T13:04:20.572Z,48.86
2022-08-05T13:06:51.836Z,49.10
2022-08-05T13:09:28.789Z,48.58
2022-08-05T13:12:01.920Z,48.40
2022-08-05T13:14:36.241Z,48.34
2022-08-05T13:17:03.151Z,48.52
2022-08-05T13:19:52.532Z,48.74
2022-08-05T13:22:29.161Z,48.43
2022-08-05T13:24:58.017Z,48.50
2022-08-05T13:27:35.541Z,48.03
2022-08-05T13:30:34.543Z,48.23
2022-08-05T13:32:51.174Z,48.50
2022-08-05T13:35:22.449Z,48.43
2022-08-05T13:38:06.007Z,48.23
2022-08-05T13:40:51.325Z,47.86
2022-08-05T13:43:21.847Z,47.99
2022-08-05T13:45:48.717Z,47.93
2022-08-05T13:48:58.390Z,47.81
2022-08-05T13:51:03.596Z,48.02
2022-08-05T13:53:31.053Z,47.82
2022-08-05T13:56:01.933Z,47.97
2022-08-05T13:58:30.828Z,47.73
2022-08-05T14:00:57.538Z,47.81
2022-08-05T14:03:24.167Z,47.92
2022-08-05T14:06:26.333Z,48.11
2022-08-05T14:08:37.011Z,47.72
2022-08-05T14:11:20.857Z,47.96
2022-08-05T14:13:48.530Z,48.44
2022-08-05T14:16:21.273Z,48.46
2022-08-05T14:18:47.640Z,48.55
2022-08-05T14:22:07.273Z,48.12
2022-08-05T14:24:00.705Z,48.64
2022-08-05T14:26:38.765Z,48.23
2022-08-05T14:29:16.435Z,48.63
2022-08-05T14:32:03.726Z,48.43
2022-08-05T14:34:29.574Z,48.18
2022-08-05T14:37:01.900Z,48.00
2022-08-05T14:39:28.308Z,48.14
2022-08-05T14:42:19.548Z,48.37
2022-08-05T14:44:41.917Z,48.31
2022-08-05T14:47:08.894Z,48.45
2022-08-05T14:49:59.186Z,48.19
2022-08-05T14:52:42.806Z,48.41
2022-08-05T14:55:07.993Z,48.32
2022-08-05T14:57:54.210Z,48.41
2022-08-05T15:00:27.706Z,48.46
2022-08-05T15:02:54.836Z,48.39
2022-08-05T15:05:21.274Z,48.48
2022-08-05T15:08:05.364Z,48.54
2022-08-05T15:10:33.968Z,48.37
2022-08-05T15:13:04.081Z,48.00
2022-08-05T15:15:54.978Z,48.19
2022-08-05T15:18:17.502Z,48.24
2022-08-05T15:20:43.907Z,48.48
2022-08-05T15:23:12.416Z,48.46
2022-08-05T15:25:51.236Z,48.46
2022-08-05T15:28:20.313Z,48.38
2022-08-05T15:30:51.541Z,48.46
2022-08-05T15:34:04.677Z,48.63
2022-08-05T15:36:05.855Z,48.52
2022-08-05T15:38:43.406Z,48.16
2022-08-05T15:41:23.077Z,48.10
2022-08-05T15:43:50.568Z,48.43
2022-08-05T15:46:17.328Z,48.71
2022-08-05T15:48:52.746Z,48.31
2022-08-05T15:52:03.895Z,48.75
2022-08-05T15:54:11.533Z,48.75
2022-08-05T15:56:41.698Z,49.02
2022-08-05T15:59:08.069Z,49.00
2022-08-05T16:01:39.933Z,48.96
2022-08-05T16:04:19.414Z,48.68
2022-08-05T16:06:45.817Z,48.96
2022-08-05T16:09:12.193Z,48.64
2022-08-05T16:11:42.493Z,49.01
2022-08-05T16:14:09.589Z,48.74
2022-08-05T16:16:35.943Z,48.82
2022-08-05T16:19:02.296Z,48.88
2022-08-05T16:21:58.436Z,48.93
2022-08-05T16:24:39.831Z,48.82
2022-08-05T16:27:01.371Z,49.03
2022-08-05T16:29:28.557Z,48.74
2022-08-05T16:31:57.859Z,48.94
2022-08-05T16:34:24.244Z,48.67
2022-08-05T16:36:52.723Z,48.57
2022-08-05T16:39:20.732Z,49.01
2022-08-05T16:42:14.339Z,48.71
2022-08-05T16:44:33.635Z,48.29
2022-08-05T16:47:00.000Z,48.85
2022-08-05T16:49:26.359Z,48.91
2022-08-05T16:51:54.909Z,49.12
2022-08-05T16:54:28.967Z,49.14
2022-08-05T16:56:58.413Z,49.41
2022-08-05T16:59:24.779Z,49.16
2022-08-05T17:01:55.979Z,49.51
2022-08-05T17:04:23.803Z,49.35
2022-08-05T17:06:53.242Z,49.32
2022-08-05T17:09:20.043Z,49.32
2022-08-05T17:11:48.690Z,49.08
2022-08-05T17:14:34.538Z,49.07
2022-08-05T17:17:03.513Z,49.04
2022-08-05T17:19:31.000Z,49.08
2022-08-05T17:21:57.366Z,48.87
2022-08-05T17:24:36.520Z,49.09
2022-08-05T17:27:08.733Z,48.98
2022-08-05T17:29:41.207Z,48.87
2022-08-05T17:32:08.447Z,48.62
2022-08-05T17:34:37.929Z,48.73
2022-08-05T17:37:04.621Z,49.03
2022-08-05T17:39:55.044Z,49.25
2022-08-05T17:42:26.986Z,49.64
2022-08-05T17:44:56.586Z,49.32
2022-08-05T17:47:23.659Z,50.99
2022-08-05T17:49:59.844Z,50.47
2022-08-05T17:52:30.806Z,50.43
2022-08-05T17:54:57.559Z,50.65
2022-08-05T17:57:24.543Z,50.72
2022-08-05T18:00:03.457Z,51.48
2022-08-05T18:02:32.058Z,50.59
2022-08-05T18:04:58.564Z,50.75
2022-08-05T18:07:25.266Z,50.57
2022-08-05T18:10:08.790Z,50.35
2022-08-05T18:12:36.936Z,50.58
2022-08-05T18:15:03.792Z,50.80
2022-08-05T18:17:59.025Z,50.53
2022-08-05T18:20:17.524Z,50.26
2022-08-05T18:22:54.316Z,49.71
2022-08-05T18:25:21.139Z,48.42
2022-08-05T18:27:52.323Z,49.26
2022-08-05T18:30:19.175Z,48.40
2022-08-05T18:32:53.204Z,48.53
2022-08-05T18:35:20.215Z,49.11
2022-08-05T18:38:06.553Z,48.95
2022-08-05T18:41:53.847Z,49.35
2022-08-05T18:43:20.767Z,46.67
2022-08-05T18:45:49.529Z,44.95
2022-08-05T18:48:30.759Z,46.29
2022-08-05T18:51:01.694Z,45.24
2022-08-05T18:53:50.381Z,45.09
2022-08-05T18:56:17.000Z,43.35
2022-08-05T18:58:48.218Z,42.16
2022-08-05T19:01:18.051Z,42.63
2022-08-05T19:03:55.382Z,42.70
2022-08-05T19:06:34.058Z,42.81
2022-08-05T19:09:01.525Z,43.77
2022-08-05T19:11:37.023Z,42.66
2022-08-05T19:14:37.995Z,43.43
2022-08-05T19:17:00.594Z,42.65
2022-08-05T19:19:26.953Z,43.14
2022-08-05T19:21:57.001Z,41.71
2022-08-05T19:24:34.627Z,41.13
2022-08-05T19:27:04.002Z,41.78
2022-08-05T19:29:36.202Z,43.42
2022-08-05T19:32:02.985Z,43.30
2022-08-05T19:34:30.834Z,43.27
2022-08-05T19:36:57.195Z,43.43
2022-08-05T19:39:23.609Z,43.47
2022-08-05T19:42:06.587Z,42.19
2022-08-05T19:44:44.467Z,42.54
2022-08-05T19:47:11.700Z,42.14
2022-08-05T19:49:41.726Z,41.96
2022-08-05T19:52:29.403Z,43.77
2022-08-05T19:54:54.826Z,43.26
2022-08-05T19:57:49.118Z,42.58
2022-08-05T20:00:07.582Z,42.97
2022-08-05T20:02:35.918Z,43.20
2022-08-05T20:05:04.668Z,43.01
2022-08-05T20:07:46.801Z,43.69
2022-08-05T20:10:15.283Z,43.61
2022-08-05T20:12:47.910Z,43.75
2022-08-05T20:15:14.848Z,44.31
2022-08-05T20:17:41.210Z,43.90
2022-08-05T20:20:11.038Z,44.28
2022-08-05T20:22:37.584Z,44.38
2022-08-05T20:25:07.894Z,44.14
2022-08-05T20:27:41.887Z,44.19
2022-08-05T20:30:08.534Z,44.74
2022-08-05T20:32:34.896Z,44.69
2022-08-05T20:35:02.549Z,44.74
2022-08-05T20:38:05.832Z,44.85
2022-08-05T20:40:15.241Z,45.00
2022-08-05T20:42:44.395Z,45.22
2022-08-05T20:45:10.739Z,45.61
2022-08-05T20:47:40.142Z,45.90
2022-08-05T20:50:07.456Z,46.61
2022-08-05T20:52:34.026Z,46.62
2022-08-05T20:55:54.785Z,46.68
2022-08-05T20:57:46.915Z,46.62
2022-08-05T21:00:35.044Z,46.77
2022-08-05T21:03:01.742Z,47.02
2022-08-05T21:05:38.017Z,47.53
2022-08-05T21:08:14.458Z,47.20
2022-08-05T21:10:40.812Z,47.61
2022-08-05T21:13:46.963Z,47.14
2022-08-05T21:16:01.929Z,47.30
2022-08-05T21:18:30.012Z,47.55
2022-08-05T21:20:57.109Z,47.08
2022-08-05T21:23:23.476Z,47.74
2022-08-05T21:25:50.471Z,47.94
2022-08-05T21:28:18.419Z,47.91
2022-08-05T21:30:45.165Z,47.88
2022-08-05T21:33:22.453Z,47.73
2022-08-05T21:35:55.759Z,47.95
2022-08-05T21:38:24.990Z,48.45
2022-08-05T21:40:51.361Z,48.18
2022-08-05T21:43:24.488Z,48.46
2022-08-05T21:45:56.648Z,48.68
2022-08-05T21:48:24.371Z,48.47
2022-08-05T21:50:53.049Z,48.63
2022-08-05T21:53:20.916Z,48.91
2022-08-05T21:56:05.369Z,49.01
2022-08-05T21:58:33.638Z,48.94
2022-08-05T22:01:00.372Z,48.85
2022-08-05T22:03:48.727Z,49.16
2022-08-05T22:06:13.361Z,49.18
2022-08-05T22:08:42.486Z,49.02
2022-08-05T22:11:09.275Z,49.23
2022-08-05T22:14:19.746Z,48.94
2022-08-05T22:16:41.913Z,48.96
2022-08-05T22:19:56.072Z,48.81
2022-08-05T22:21:55.572Z,48.77
2022-08-05T22:24:40.205Z,48.71
2022-08-05T22:27:08.501Z,48.70
2022-08-05T22:29:37.461Z,48.73
2022-08-05T22:32:03.827Z,49.11
2022-08-05T22:34:30.236Z,49.10
2022-08-05T22:36:56.600Z,48.99
2022-08-05T22:39:28.495Z,49.10
2022-08-05T22:42:09.771Z,48.88
2022-08-05T22:44:38.239Z,49.43
2022-08-05T22:47:05.856Z,49.26
2022-08-05T22:50:20.155Z,49.10
2022-08-05T22:52:22.820Z,49.10
2022-08-05T22:54:58.487Z,49.20
2022-08-05T22:57:24.855Z,48.88
2022-08-05T22:59:54.285Z,48.67
2022-08-05T23:02:29.564Z,48.98
2022-08-05T23:04:56.548Z,49.09
2022-08-05T23:07:22.918Z,49.62
2022-08-05T23:09:58.071Z,49.38
2022-08-05T23:12:29.045Z,49.11
2022-08-05T23:14:59.377Z,49.00
2022-08-05T23:17:34.106Z,49.10
2022-08-05T23:20:03.479Z,49.38
2022-08-05T23:22:30.878Z,49.30
2022-08-05T23:24:57.427Z,49.07
2022-08-05T23:27:24.143Z,49.17
2022-08-05T23:29:55.349Z,49.25
2022-08-05T23:32:22.750Z,49.40
2022-08-05T23:34:49.492Z,49.28
2022-08-05T23:37:17.259Z,49.38
2022-08-05T23:39:53.876Z,49.96
2022-08-05T23:42:28.952Z,49.42
2022-08-05T23:44:55.822Z,49.89
2022-08-05T23:47:22.192Z,50.03
2022-08-05T23:49:51.979Z,49.84
2022-08-05T23:52:18.682Z,49.87
2022-08-05T23:54:45.264Z,49.96
2022-08-05T23:57:11.629Z,50.14
